Verbank, NY

1:12 PM EDT on October 01, 2016 (GMT -0400)
Crown Heights | | Change Station

Elev 308 ft 41.62 °N, 73.92 °W | Updated 8 seconds ago

Overcast
Overcast
56.1 °F
Feels Like 56.1 °F
N
1.0
Wind Variable Wind from North
Gusts 6.0 mph

Today
High -- | Low -- °F
--% Chance of Precip.
Yesterday
High -- | Low -- °F
Precip. -- in
Pressure 30.22 in
Visibility 10.0 miles
Clouds Mostly Cloudy 700 ft
Overcast 1700 ft
Dew Point 53.2 °F
Humidity 90%
Rainfall 0.02 in
Snow Depth Not available.
6:52 AM 6:35 PM
New Moon, 0% visible
METAR KPOU 011653Z 01006KT 10SM BKN007 OVC017 13/12 A3022 RMK AO2 CIG 007V011 SLP231 T01330117
Pressure 30.22 in
Visibility 10.0 miles
Clouds Mostly Cloudy 700 ft
Overcast 1700 ft
Dew Point 53.2 °F
Humidity 90%
Rainfall 0.02 in
Snow Depth Not available.
6:52 AM 6:35 PM
New Moon, 0% visible
METAR KPOU 011653Z 01006KT 10SM BKN007 OVC017 13/12 A3022 RMK AO2 CIG 007V011 SLP231 T01330117

10-Day Weather Forecast

Almanac

Astronomy

Oct. 01, 2016 Rise Set
Actual Time
Civil Twilight
Nautical Twilight
Astronomical Twilight
Moon
Length of Visible Light
Length of Day
Tomorrow will be .
, % of the Moon is Illuminated

Today's Extremes

State Highs State Lows

Community

WunderPhotos

Upload Photos

1,942,963 photos uploaded!

WunderBlog® & News

Nearby

Air Quality

  Air Quality AQ Index Pollutant
Not available.

Snow Depth

Station Depth Elevation

Earthquake Activity

City Distance Mag. Time & Date
Minimum magnitude displayed is 2.5.

Coastal Water Temperatures

Place Temperature

Stations

Nearby Weather Stations

Station Location Temp. Windchill Dew Point Humidity Wind Precip. Elev Updated Type
                   

Watches & Warnings

There are currently no watches in effect.